createdAt,value
2018-12-16T00:00:22.599Z,94.89
2018-12-16T00:01:21.616Z,94.89
2018-12-16T00:02:21.629Z,95.26
2018-12-16T00:03:21.619Z,95.45
2018-12-16T00:04:21.650Z,95.07
2018-12-16T00:05:21.665Z,95.26
2018-12-16T00:06:21.640Z,94.98
2018-12-16T00:07:21.708Z,95.17
2018-12-16T00:08:21.658Z,95.36
2018-12-16T00:09:21.647Z,95.45
2018-12-16T00:10:21.719Z,94.98
2018-12-16T00:11:21.707Z,95.26
2018-12-16T00:15:51.224Z,95.17
2018-12-16T00:16:51.259Z,95.73
2018-12-16T00:17:51.307Z,95.36
2018-12-16T00:18:51.245Z,95.36
2018-12-16T00:19:51.219Z,95.17
2018-12-16T00:20:51.283Z,94.89
2018-12-16T00:21:51.318Z,95.83
2018-12-16T00:22:51.216Z,95.45
2018-12-16T00:23:51.222Z,95.64
2018-12-16T00:24:51.203Z,95.54
2018-12-16T00:25:51.262Z,95.73
2018-12-16T00:26:51.266Z,95.64
2018-12-16T00:27:51.198Z,95.64
2018-12-16T00:28:51.206Z,95.54
2018-12-16T00:29:51.273Z,95.54
2018-12-16T00:30:51.224Z,95.45
2018-12-16T00:31:51.281Z,95.64
2018-12-16T00:32:51.233Z,95.64
2018-12-16T00:33:51.209Z,95.54
2018-12-16T00:34:51.204Z,95.64
2018-12-16T00:35:51.221Z,96.3
2018-12-16T00:36:51.235Z,95.92
2018-12-16T00:37:51.204Z,95.64
2018-12-16T00:38:51.212Z,95.92
2018-12-16T00:39:51.246Z,95.73
2018-12-16T00:40:51.244Z,96.02
2018-12-16T00:41:51.292Z,95.92
2018-12-16T00:42:51.214Z,96.02
2018-12-16T00:43:51.203Z,95.97
2018-12-16T00:44:51.231Z,95.92
2018-12-16T00:45:51.471Z,96.02
2018-12-16T00:46:51.226Z,95.73
2018-12-16T00:47:51.222Z,96.02
2018-12-16T00:48:51.316Z,96.4
2018-12-16T00:49:51.250Z,96.3
2018-12-16T00:50:51.221Z,96.25
2018-12-16T00:51:51.227Z,96.25
2018-12-16T00:52:51.233Z,96.06
2018-12-16T00:53:51.238Z,96.35
2018-12-16T00:54:51.201Z,95.97
2018-12-16T00:55:51.358Z,96.16
2018-12-16T00:56:51.262Z,96.82
2018-12-16T00:57:51.283Z,96.54
2018-12-16T00:58:51.296Z,96.54
2018-12-16T00:59:51.284Z,96.54
2018-12-16T01:00:51.218Z,96.44
2018-12-16T01:01:51.278Z,97.01
2018-12-16T01:02:51.251Z,96.91
2018-12-16T01:03:51.242Z,96.91
2018-12-16T01:04:51.240Z,96.63
2018-12-16T01:05:51.291Z,96.63
2018-12-16T01:06:51.242Z,96.73
2018-12-16T01:07:51.217Z,96.44
2018-12-16T01:08:52.574Z,97.1
2018-12-16T01:09:51.272Z,96.73
2018-12-16T01:10:51.234Z,96.54
2018-12-16T01:11:51.258Z,96.73
2018-12-16T01:12:51.280Z,97.39
2018-12-16T01:13:51.236Z,97.1
2018-12-16T01:14:51.243Z,97.77
2018-12-16T01:15:51.283Z,98.05
2018-12-16T01:16:51.286Z,97.58
2018-12-16T01:17:51.294Z,97.77
2018-12-16T01:18:51.299Z,98.05
2018-12-16T01:19:51.255Z,97.96
2018-12-16T01:20:51.349Z,97.96
2018-12-16T01:21:51.241Z,97.58
2018-12-16T01:22:51.286Z,98.52
2018-12-16T01:23:51.269Z,98.24
2018-12-16T01:24:51.257Z,98.14
2018-12-16T01:25:51.276Z,98.24
2018-12-16T01:26:51.280Z,98.33
2018-12-16T01:27:51.261Z,98.24
2018-12-16T01:28:51.339Z,98.71
2018-12-16T01:29:51.256Z,98.71
2018-12-16T01:30:51.247Z,98.52
2018-12-16T01:31:51.290Z,98.8
2018-12-16T01:37:08.856Z,98.71
2018-12-16T01:37:20.786Z,98.61
2018-12-16T01:38:20.817Z,98.52
2018-12-16T01:39:20.802Z,98.8
2018-12-16T01:40:20.813Z,98.71
2018-12-16T01:41:20.781Z,98.61
2018-12-16T01:42:20.812Z,98.8
2018-12-16T01:43:20.778Z,98.33
2018-12-16T01:44:20.786Z,98.8
2018-12-16T01:45:20.760Z,98.9
2018-12-16T01:46:20.796Z,98.71
2018-12-16T01:47:20.793Z,98.61
2018-12-16T01:48:20.892Z,98.71
2018-12-16T01:49:20.786Z,98.52
2018-12-16T01:50:20.741Z,98.99
2018-12-16T01:51:20.815Z,99.18
2018-12-16T01:52:22.177Z,99.18
2018-12-16T01:53:20.789Z,98.52
2018-12-16T01:54:20.790Z,98.9
2018-12-16T01:55:21.543Z,98.9
2018-12-16T01:56:20.866Z,98.52
2018-12-16T01:57:20.811Z,98.71
2018-12-16T01:58:20.785Z,98.61
2018-12-16T01:59:20.800Z,98.99
2018-12-16T02:00:20.859Z,98.99
2018-12-16T02:01:20.915Z,98.71
2018-12-16T02:02:21.691Z,98.33
2018-12-16T02:03:20.878Z,98.43
2018-12-16T02:04:20.817Z,98.33
2018-12-16T02:05:20.795Z,98.43
2018-12-16T02:06:20.826Z,98.61
2018-12-16T02:10:50.599Z,98.52
2018-12-16T02:11:50.662Z,98.8
2018-12-16T02:12:50.577Z,98.52
2018-12-16T02:13:50.595Z,98.9
2018-12-16T02:14:50.582Z,98.99
2018-12-16T02:15:50.622Z,98.9
2018-12-16T02:16:50.576Z,98.99
2018-12-16T02:17:50.580Z,99.08
2018-12-16T02:18:50.570Z,99.18
2018-12-16T02:19:50.545Z,99.08
2018-12-16T02:20:50.740Z,98.9
2018-12-16T02:21:50.559Z,99.27
2018-12-16T02:22:56.622Z,99.18
2018-12-16T02:23:50.728Z,99.18
2018-12-16T02:24:50.637Z,98.99
2018-12-16T02:25:50.617Z,99.18
2018-12-16T02:26:50.614Z,99.08
2018-12-16T02:27:50.579Z,98.9
2018-12-16T02:28:50.638Z,99.08
2018-12-16T02:29:50.617Z,98.99
2018-12-16T02:30:50.626Z,99.46
2018-12-16T02:31:50.626Z,99.37
2018-12-16T02:32:50.566Z,99.18
2018-12-16T02:33:50.667Z,99.18
2018-12-16T02:34:50.651Z,99.18
2018-12-16T02:35:50.611Z,99.46
2018-12-16T02:36:50.802Z,99.27
2018-12-16T02:37:50.627Z,98.99
2018-12-16T02:38:50.642Z,98.9
2018-12-16T02:39:50.598Z,98.9
2018-12-16T02:40:50.632Z,98.99
2018-12-16T02:47:30.998Z,98.71
2018-12-16T02:48:30.960Z,99.08
2018-12-16T02:49:30.922Z,99.46
2018-12-16T02:50:31.003Z,99.27
2018-12-16T02:51:31.002Z,99.27
2018-12-16T02:52:31.035Z,99.18
2018-12-16T02:53:30.990Z,99.08
2018-12-16T02:54:30.956Z,99.46
2018-12-16T02:55:31.025Z,99.08
2018-12-16T02:56:30.958Z,99.37
2018-12-16T02:57:31.002Z,99.08
2018-12-16T02:58:30.970Z,98.99
2018-12-16T02:59:30.971Z,99.18
2018-12-16T03:00:31.021Z,99.18
2018-12-16T03:01:31.031Z,99.18
2018-12-16T03:02:31.027Z,98.99
2018-12-16T03:03:30.963Z,98.99
2018-12-16T03:04:31.049Z,98.99
2018-12-16T03:05:31.018Z,99.46
2018-12-16T03:06:31.062Z,99.18
2018-12-16T03:07:30.969Z,99.18
2018-12-16T03:08:31.013Z,99.56
2018-12-16T03:09:30.972Z,99.75
2018-12-16T03:10:30.949Z,99.65
2018-12-16T03:11:30.990Z,99.56
2018-12-16T03:13:35.354Z,99.56
2018-12-16T03:14:37.498Z,99.56
2018-12-16T03:15:35.522Z,99.56
2018-12-16T03:16:35.326Z,99.65
2018-12-16T03:17:35.297Z,99.84
2018-12-16T03:18:35.289Z,99.99
2018-12-16T03:19:35.409Z,99.99
2018-12-16T03:20:35.285Z,99.99
2018-12-16T03:21:35.281Z,99.99
2018-12-16T03:22:35.347Z,99.99
2018-12-16T03:23:35.323Z,99.99
2018-12-16T03:24:35.845Z,99.99
2018-12-16T03:25:35.278Z,99.99
2018-12-16T03:26:39.134Z,99.99
2018-12-16T03:27:35.285Z,99.99
2018-12-16T03:28:35.283Z,99.99
2018-12-16T03:29:59.285Z,99.99
2018-12-16T03:30:36.545Z,99.99
2018-12-16T03:31:35.390Z,99.99
2018-12-16T03:32:35.324Z,99.99
2018-12-16T03:33:47.564Z,99.94
2018-12-16T03:34:35.444Z,99.75
2018-12-16T03:35:49.011Z,99.99
2018-12-16T03:37:49.547Z,99.99
2018-12-16T03:38:48.759Z,99.99
2018-12-16T03:41:30.179Z,99.99
2018-12-16T03:42:29.725Z,99.99
2018-12-16T03:43:29.406Z,99.84
2018-12-16T03:44:29.353Z,99.99
2018-12-16T03:45:30.914Z,99.99
2018-12-16T03:46:30.152Z,99.99
2018-12-16T03:47:29.353Z,99.99
2018-12-16T03:48:29.389Z,99.94
2018-12-16T03:50:33.077Z,99.99
2018-12-16T03:51:33.007Z,99.99
2018-12-16T03:52:33.037Z,99.75
2018-12-16T03:53:33.074Z,99.99
2018-12-16T03:54:33.050Z,99.99
2018-12-16T03:56:40.854Z,99.99
2018-12-16T03:57:05.558Z,99.99
2018-12-16T03:59:05.541Z,99.99
2018-12-16T04:00:06.098Z,99.84
2018-12-16T04:01:06.655Z,99.99
2018-12-16T04:02:06.057Z,99.75
2018-12-16T04:03:06.100Z,99.99
2018-12-16T04:04:06.094Z,99.84
2018-12-16T04:05:06.120Z,99.75
2018-12-16T04:06:17.834Z,99.99
2018-12-16T04:07:09.636Z,99.75
2018-12-16T04:08:06.111Z,99.99
2018-12-16T04:09:06.097Z,99.99
2018-12-16T04:10:06.207Z,99.99
2018-12-16T04:11:06.039Z,99.99
2018-12-16T04:12:06.083Z,99.99
2018-12-16T04:13:06.077Z,99.99
2018-12-16T04:14:06.080Z,99.99
2018-12-16T04:15:06.114Z,99.99
2018-12-16T04:16:06.105Z,99.99
2018-12-16T04:17:06.107Z,99.99
2018-12-16T04:18:06.360Z,99.99
2018-12-16T04:19:06.090Z,99.99
2018-12-16T04:20:06.065Z,99.99
2018-12-16T04:21:06.128Z,99.99
2018-12-16T04:22:06.058Z,99.99
2018-12-16T04:23:06.140Z,99.99
2018-12-16T04:24:06.087Z,99.99
2018-12-16T04:25:06.109Z,99.99
2018-12-16T04:26:06.146Z,99.99
2018-12-16T04:27:06.223Z,99.99
2018-12-16T04:28:06.191Z,99.99
2018-12-16T04:29:06.105Z,99.99
2018-12-16T04:30:06.085Z,99.99
2018-12-16T04:31:06.354Z,99.99
2018-12-16T04:32:06.113Z,99.99
2018-12-16T04:33:06.137Z,99.99
2018-12-16T04:34:06.121Z,99.99
2018-12-16T04:35:06.119Z,99.99
2018-12-16T04:36:06.122Z,99.99
2018-12-16T04:37:06.110Z,99.99
2018-12-16T04:38:06.158Z,99.99
2018-12-16T04:39:06.770Z,99.99
2018-12-16T04:40:06.105Z,99.99
2018-12-16T04:41:06.101Z,99.99
2018-12-16T04:42:06.105Z,99.99
2018-12-16T04:43:06.099Z,99.99
2018-12-16T04:44:07.232Z,99.84
2018-12-16T04:45:06.137Z,99.94
2018-12-16T04:46:06.114Z,99.65
2018-12-16T04:47:06.128Z,99.94
2018-12-16T04:48:06.117Z,99.99
2018-12-16T04:49:06.089Z,99.99
2018-12-16T04:50:06.126Z,99.99
2018-12-16T04:51:06.127Z,99.99
2018-12-16T04:52:06.123Z,99.99
2018-12-16T04:53:06.108Z,99.99
2018-12-16T04:54:06.118Z,99.99
2018-12-16T04:55:06.141Z,99.7
2018-12-16T04:56:06.165Z,99.88
2018-12-16T04:57:06.126Z,99.99
2018-12-16T04:58:06.107Z,99.99
2018-12-16T04:59:06.213Z,99.99
2018-12-16T05:00:06.146Z,99.94
2018-12-16T05:01:06.143Z,99.99
2018-12-16T05:02:06.163Z,99.99
2018-12-16T05:03:06.203Z,99.99
2018-12-16T05:04:06.117Z,99.75
2018-12-16T05:05:06.126Z,99.99
2018-12-16T05:06:06.133Z,99.99
2018-12-16T05:07:06.171Z,99.99
2018-12-16T05:08:06.146Z,99.99
2018-12-16T05:09:06.377Z,99.99
2018-12-16T05:10:06.161Z,99.94
2018-12-16T05:11:06.189Z,99.99
2018-12-16T05:12:06.276Z,99.99
2018-12-16T05:13:06.136Z,99.99
2018-12-16T05:14:06.141Z,99.99
2018-12-16T05:15:06.164Z,99.99
2018-12-16T05:16:06.173Z,99.99
2018-12-16T05:17:06.201Z,99.99
2018-12-16T05:18:06.166Z,99.75
2018-12-16T05:19:06.207Z,99.75
2018-12-16T05:20:06.213Z,99.94
2018-12-16T05:21:06.195Z,99.99
2018-12-16T05:22:06.189Z,99.99
2018-12-16T05:23:06.159Z,99.75
2018-12-16T05:24:06.168Z,99.99
2018-12-16T05:28:35.463Z,99.99
2018-12-16T05:29:35.572Z,99.99
2018-12-16T05:30:35.632Z,99.99
2018-12-16T05:31:35.481Z,99.99
2018-12-16T05:32:35.746Z,99.99
2018-12-16T05:33:35.454Z,99.99
2018-12-16T05:34:35.429Z,99.99
2018-12-16T05:35:35.437Z,99.75
2018-12-16T05:36:35.466Z,99.99
2018-12-16T05:37:35.488Z,99.99
2018-12-16T05:38:35.447Z,99.99
2018-12-16T05:39:35.414Z,99.94
2018-12-16T05:40:35.463Z,99.84
2018-12-16T05:41:35.500Z,99.99
2018-12-16T05:42:35.465Z,99.99
2018-12-16T05:43:35.472Z,99.99
2018-12-16T05:44:35.488Z,99.99
2018-12-16T05:45:35.443Z,99.99
2018-12-16T05:46:35.460Z,99.99
2018-12-16T05:47:35.444Z,99.84
2018-12-16T05:48:35.461Z,99.94
2018-12-16T05:49:35.449Z,99.99
2018-12-16T05:50:35.491Z,99.99
2018-12-16T05:51:35.470Z,99.84
2018-12-16T05:52:35.472Z,99.99
2018-12-16T05:53:35.482Z,99.99
2018-12-16T05:54:35.481Z,99.94
2018-12-16T05:55:35.465Z,99.99
2018-12-16T05:56:35.526Z,99.99
2018-12-16T05:57:36.862Z,99.99
2018-12-16T05:58:35.479Z,99.99
2018-12-16T05:59:35.502Z,99.84
2018-12-16T06:00:35.521Z,99.99
2018-12-16T06:01:35.486Z,99.75
2018-12-16T06:02:35.539Z,99.75
2018-12-16T06:03:35.572Z,99.84
2018-12-16T06:04:35.515Z,99.84
2018-12-16T06:05:35.490Z,99.75
2018-12-16T06:06:35.518Z,99.99
2018-12-16T06:07:35.483Z,99.84
2018-12-16T06:08:35.507Z,99.99
2018-12-16T06:09:35.483Z,99.99
2018-12-16T06:10:35.576Z,99.99
2018-12-16T06:11:35.564Z,99.99
2018-12-16T06:12:35.503Z,99.84
2018-12-16T06:13:35.513Z,99.84
2018-12-16T06:14:35.487Z,99.99
2018-12-16T06:15:35.509Z,99.99
2018-12-16T06:16:35.772Z,99.99
2018-12-16T06:17:35.534Z,99.75
2018-12-16T06:18:35.577Z,99.46
2018-12-16T06:19:35.511Z,99.75
2018-12-16T06:20:35.516Z,99.46
2018-12-16T06:21:35.516Z,99.56
2018-12-16T06:22:35.565Z,99.56
2018-12-16T06:23:35.575Z,99.65
2018-12-16T06:28:05.865Z,98.99
2018-12-16T06:29:05.880Z,98.9
2018-12-16T06:30:05.864Z,99.08
2018-12-16T06:31:05.886Z,99.08
2018-12-16T06:32:05.910Z,99.18
2018-12-16T06:33:05.903Z,99.27
2018-12-16T06:34:05.938Z,99.27
2018-12-16T06:35:05.888Z,99.46
2018-12-16T06:36:05.937Z,98.99
2018-12-16T06:37:05.917Z,98.99
2018-12-16T06:38:05.904Z,99.08
2018-12-16T06:39:06.906Z,99.08
2018-12-16T06:40:05.919Z,99.08
2018-12-16T06:41:05.851Z,99.65
2018-12-16T06:42:05.902Z,99.56
2018-12-16T06:43:07.170Z,99.56
2018-12-16T06:44:05.966Z,99.84
2018-12-16T06:45:05.877Z,99.75
2018-12-16T06:46:05.915Z,99.65
2018-12-16T06:47:05.905Z,99.56
2018-12-16T06:48:05.924Z,99.27
2018-12-16T06:49:05.906Z,99.65
2018-12-16T06:50:05.952Z,99.65
2018-12-16T06:51:05.991Z,99.18
2018-12-16T06:52:07.238Z,99.56
2018-12-16T06:53:05.934Z,99.56
2018-12-16T06:54:05.893Z,99.65
2018-12-16T06:55:05.944Z,99.56
2018-12-16T06:56:09.614Z,99.99
2018-12-16T06:57:05.963Z,99.99
2018-12-16T06:58:05.892Z,99.94
2018-12-16T06:59:05.909Z,99.94
2018-12-16T07:00:05.952Z,99.56
2018-12-16T07:01:05.985Z,99.65
2018-12-16T07:02:05.995Z,99.37
2018-12-16T07:03:05.969Z,98.9
2018-12-16T07:04:05.941Z,98.99
2018-12-16T07:05:06.016Z,99.18
2018-12-16T07:06:05.958Z,98.9
2018-12-16T07:13:31.815Z,99.18
2018-12-16T07:13:43.995Z,98.61
2018-12-16T07:14:43.945Z,98.43
2018-12-16T07:15:43.967Z,98.33
2018-12-16T07:16:43.988Z,98.9
2018-12-16T07:17:43.953Z,98.9
2018-12-16T07:18:44.065Z,98.33
2018-12-16T07:19:43.992Z,98.61
2018-12-16T07:20:43.985Z,98.71
2018-12-16T07:21:43.971Z,98.61
2018-12-16T07:22:43.984Z,98.43
2018-12-16T07:23:44.024Z,98.52
2018-12-16T07:24:43.952Z,98.71
2018-12-16T07:25:43.974Z,98.43
2018-12-16T07:26:43.964Z,98.43
2018-12-16T07:27:44.007Z,98.24
2018-12-16T07:28:43.977Z,98.71
2018-12-16T07:29:43.996Z,98.24
2018-12-16T07:30:43.962Z,98.61
2018-12-16T07:31:44.009Z,98.52
2018-12-16T07:32:44.022Z,98.24
2018-12-16T07:33:44.620Z,98.24
2018-12-16T07:34:44.014Z,98.52
2018-12-16T07:35:43.984Z,98.61
2018-12-16T07:36:43.958Z,98.33
2018-12-16T07:37:43.986Z,98.24
2018-12-16T07:38:44.020Z,98.33
2018-12-16T07:39:44.105Z,98.33
2018-12-16T07:40:43.987Z,98.24
2018-12-16T07:41:44.018Z,98.43
2018-12-16T07:42:43.986Z,98.71
2018-12-16T07:48:00.632Z,98.52
2018-12-16T07:48:12.733Z,98.61
2018-12-16T07:49:12.818Z,98.14
2018-12-16T07:50:12.768Z,98.24
2018-12-16T07:51:12.683Z,98.52
2018-12-16T07:52:12.814Z,98.61
2018-12-16T07:53:12.727Z,98.66
2018-12-16T07:54:18.797Z,98.43
2018-12-16T07:55:12.732Z,98.47
2018-12-16T07:56:12.756Z,98.47
2018-12-16T07:57:13.158Z,98.66
2018-12-16T07:58:12.714Z,98.61
2018-12-16T07:59:12.747Z,98.28
2018-12-16T08:00:16.560Z,97.67
2018-12-16T08:01:12.777Z,98.05
2018-12-16T08:02:12.796Z,98
2018-12-16T08:03:12.746Z,98
2018-12-16T08:04:12.725Z,98.57
2018-12-16T08:05:12.802Z,97.91
2018-12-16T08:06:12.751Z,98.28
2018-12-16T08:07:12.714Z,98.1
2018-12-16T08:08:12.780Z,98.19
2018-12-16T08:09:12.754Z,98
2018-12-16T08:10:12.732Z,98.47
2018-12-16T08:11:12.737Z,98.66
2018-12-16T08:12:12.773Z,97.81
2018-12-16T08:13:12.776Z,97.63
2018-12-16T08:14:12.772Z,97.91
2018-12-16T08:18:41.311Z,98.1
2018-12-16T08:19:41.335Z,98.1
2018-12-16T08:20:41.259Z,97.72
2018-12-16T08:21:41.273Z,97.63
2018-12-16T08:22:41.260Z,97.63
2018-12-16T08:23:41.317Z,97.63
2018-12-16T08:24:41.298Z,97.72
2018-12-16T08:25:41.501Z,97.15
2018-12-16T08:26:41.347Z,97.15
2018-12-16T08:27:41.249Z,97.34
2018-12-16T08:28:41.331Z,97.91
2018-12-16T08:29:41.285Z,97.81
2018-12-16T08:34:10.857Z,97.25
2018-12-16T08:35:10.748Z,97.06
2018-12-16T08:36:10.822Z,97.34
2018-12-16T08:37:10.759Z,96.59
2018-12-16T08:38:10.801Z,97.06
2018-12-16T08:39:10.773Z,96.78
2018-12-16T08:40:10.855Z,96.59
2018-12-16T08:41:10.782Z,97.06
2018-12-16T08:42:10.732Z,96.96
2018-12-16T08:43:10.771Z,96.87
2018-12-16T08:44:10.827Z,96.96
2018-12-16T08:45:10.857Z,96.96
2018-12-16T08:46:10.768Z,97.06
2018-12-16T08:47:10.767Z,96.59
2018-12-16T08:48:10.765Z,96.96
2018-12-16T08:49:10.794Z,96.78
2018-12-16T08:50:10.818Z,96.78
2018-12-16T08:51:10.754Z,96.59
2018-12-16T08:52:10.791Z,96.68
2018-12-16T08:53:10.779Z,96.78
2018-12-16T08:54:10.815Z,96.59
2018-12-16T08:59:27.856Z,96.59
2018-12-16T08:59:40.264Z,96.59
2018-12-16T09:00:40.257Z,96.59
2018-12-16T09:01:40.231Z,96.59
2018-12-16T09:02:40.195Z,96.59
2018-12-16T09:03:40.215Z,96.87
2018-12-16T09:08:09.670Z,96.78
2018-12-16T09:09:09.668Z,97.25
2018-12-16T09:10:10.975Z,97.15
2018-12-16T09:11:09.650Z,97.81
2018-12-16T09:12:09.716Z,97.72
2018-12-16T09:13:09.743Z,97.63
2018-12-16T09:14:09.671Z,97.81
2018-12-16T09:15:09.738Z,98
2018-12-16T09:16:09.715Z,97.81
2018-12-16T09:17:09.722Z,97.72
2018-12-16T09:18:09.712Z,98
2018-12-16T09:19:09.709Z,98.47
2018-12-16T09:20:09.712Z,98.38
2018-12-16T09:21:09.681Z,98.38
2018-12-16T09:22:09.687Z,98.47
2018-12-16T09:23:09.682Z,99.14
2018-12-16T09:24:09.697Z,99.23
2018-12-16T09:25:09.703Z,98.47
2018-12-16T09:26:09.737Z,98.38
2018-12-16T09:27:09.756Z,98.38
2018-12-16T09:28:09.702Z,99.14
2018-12-16T09:29:09.699Z,99.71
2018-12-16T09:30:09.739Z,99.42
2018-12-16T09:31:09.710Z,99.8
2018-12-16T09:32:09.734Z,99.99
2018-12-16T09:33:09.753Z,99.89
2018-12-16T09:34:09.699Z,99.99
2018-12-16T09:35:09.714Z,99.99
2018-12-16T09:36:09.722Z,99.99
2018-12-16T09:37:09.786Z,99.99
2018-12-16T09:38:09.767Z,99.99
2018-12-16T09:39:09.768Z,99.99
2018-12-16T09:40:09.732Z,99.99
2018-12-16T09:41:09.757Z,99.99
2018-12-16T09:42:09.722Z,99.99
2018-12-16T09:43:09.749Z,99.99
2018-12-16T09:44:09.806Z,99.99
2018-12-16T09:45:09.732Z,99.99
2018-12-16T09:46:09.867Z,99.99
2018-12-16T09:47:09.715Z,99.99
2018-12-16T09:48:09.755Z,99.99
2018-12-16T09:49:09.760Z,99.99
2018-12-16T09:50:09.945Z,99.99
2018-12-16T09:51:09.772Z,99.99
2018-12-16T09:52:09.718Z,99.99
2018-12-16T09:53:09.739Z,99.99
2018-12-16T09:54:09.861Z,99.99
2018-12-16T09:55:09.754Z,99.99
2018-12-16T09:56:09.808Z,99.99
2018-12-16T09:57:09.738Z,99.99
2018-12-16T09:58:09.741Z,99.99
2018-12-16T09:59:09.761Z,99.99
2018-12-16T10:00:10.054Z,99.99
2018-12-16T10:01:09.735Z,99.99
2018-12-16T10:02:09.744Z,99.99
2018-12-16T10:03:09.757Z,99.99
2018-12-16T10:04:09.774Z,99.99
2018-12-16T10:05:09.743Z,99.99
2018-12-16T10:06:09.774Z,99.99
2018-12-16T10:07:09.790Z,99.99
2018-12-16T10:08:11.495Z,99.99
2018-12-16T10:09:09.763Z,99.99
2018-12-16T10:10:09.766Z,99.99
2018-12-16T10:11:09.772Z,99.99
2018-12-16T10:12:09.784Z,99.99
2018-12-16T10:13:09.743Z,99.99
2018-12-16T10:14:09.821Z,99.99
2018-12-16T10:15:09.744Z,99.99
2018-12-16T10:16:09.762Z,99.99
2018-12-16T10:17:09.817Z,99.99
2018-12-16T10:18:09.819Z,99.99
2018-12-16T10:19:09.792Z,99.99
2018-12-16T10:20:09.766Z,99.99
2018-12-16T10:21:09.836Z,99.99
2018-12-16T10:22:09.831Z,99.99
2018-12-16T10:23:09.804Z,99.99
2018-12-16T10:24:09.813Z,99.99
2018-12-16T10:25:09.865Z,99.99
2018-12-16T10:26:09.841Z,99.99
2018-12-16T10:27:09.877Z,99.99
2018-12-16T10:28:14.701Z,99.99
2018-12-16T10:29:09.817Z,99.99
2018-12-16T10:30:09.801Z,99.99
2018-12-16T10:31:09.855Z,99.99
2018-12-16T10:32:09.816Z,99.99
2018-12-16T10:33:21.845Z,99.99
2018-12-16T10:34:09.824Z,99.99
2018-12-16T10:35:09.829Z,99.99
2018-12-16T10:36:09.834Z,99.99
2018-12-16T10:37:09.847Z,99.99
2018-12-16T10:38:19.917Z,99.99
2018-12-16T10:39:09.803Z,99.99
2018-12-16T10:40:10.001Z,99.99
2018-12-16T10:41:18.818Z,99.99
2018-12-16T10:42:09.776Z,99.99
2018-12-16T10:43:14.561Z,99.99
2018-12-16T10:44:09.787Z,99.99
2018-12-16T10:45:09.821Z,99.99
2018-12-16T10:46:09.851Z,99.99
2018-12-16T10:47:10.014Z,99.99
2018-12-16T10:48:09.845Z,99.99
2018-12-16T10:49:09.836Z,99.99
2018-12-16T10:50:09.865Z,99.99
2018-12-16T10:51:09.819Z,99.99
2018-12-16T10:52:09.913Z,99.99
2018-12-16T10:53:09.831Z,99.99
2018-12-16T10:54:09.853Z,99.99
2018-12-16T10:55:09.861Z,99.99
2018-12-16T10:56:09.833Z,99.99
2018-12-16T10:57:09.874Z,99.99
2018-12-16T10:58:09.912Z,99.99
2018-12-16T10:59:09.854Z,99.99
2018-12-16T11:00:10.035Z,99.99
2018-12-16T11:01:09.950Z,99.99
2018-12-16T11:02:09.907Z,99.99
2018-12-16T11:03:09.872Z,99.99
2018-12-16T11:04:09.866Z,99.99
2018-12-16T11:05:09.881Z,99.99
2018-12-16T11:06:10.687Z,99.99
2018-12-16T11:07:09.839Z,99.99
2018-12-16T11:08:09.975Z,99.99
2018-12-16T11:09:09.877Z,99.99
2018-12-16T11:10:09.856Z,99.99
2018-12-16T11:11:09.890Z,99.99
2018-12-16T11:12:10.001Z,99.99
2018-12-16T11:13:09.981Z,99.99
2018-12-16T11:14:10.054Z,99.99
2018-12-16T11:15:09.990Z,99.99
2018-12-16T11:16:09.911Z,99.99
2018-12-16T11:17:09.974Z,99.99
2018-12-16T11:18:13.877Z,99.99
2018-12-16T11:19:09.991Z,99.99
2018-12-16T11:20:10.127Z,99.99
2018-12-16T11:21:09.885Z,99.99
2018-12-16T11:22:09.965Z,99.99
2018-12-16T11:23:10.095Z,99.99
2018-12-16T11:24:10.173Z,99.99
2018-12-16T11:25:10.142Z,99.99
2018-12-16T11:26:09.989Z,99.99
2018-12-16T11:27:10.710Z,99.99
2018-12-16T11:28:09.929Z,99.99
2018-12-16T11:29:09.904Z,99.99
2018-12-16T11:30:09.985Z,99.99
2018-12-16T11:31:10.103Z,99.99
2018-12-16T11:32:09.938Z,99.99
2018-12-16T11:33:09.975Z,99.99
2018-12-16T11:34:09.982Z,99.99
2018-12-16T11:35:10.296Z,99.99
2018-12-16T11:36:09.902Z,99.99
2018-12-16T11:37:09.899Z,99.99
2018-12-16T11:38:09.967Z,99.99
2018-12-16T11:39:09.974Z,99.99
2018-12-16T11:40:10.125Z,99.99
2018-12-16T11:41:09.943Z,99.99
2018-12-16T11:42:10.070Z,99.99
2018-12-16T11:43:09.903Z,99.99
2018-12-16T11:44:09.913Z,99.99
2018-12-16T11:45:10.022Z,99.99
2018-12-16T11:46:09.993Z,99.99
2018-12-16T11:47:10.003Z,99.99
2018-12-16T11:48:10.013Z,99.99
2018-12-16T11:49:10.022Z,99.99
2018-12-16T11:50:10.346Z,99.99
2018-12-16T11:51:10.278Z,99.99
2018-12-16T11:52:09.962Z,99.99
2018-12-16T11:53:09.965Z,99.99
2018-12-16T11:54:10.020Z,99.99
2018-12-16T11:55:15.757Z,99.99
2018-12-16T11:56:10.056Z,99.99
2018-12-16T11:57:09.998Z,99.99
2018-12-16T11:58:10.004Z,99.99
2018-12-16T11:59:10.020Z,99.99
2018-12-16T12:00:10.120Z,99.99
2018-12-16T12:01:10.421Z,99.99
2018-12-16T12:02:10.244Z,99.99
2018-12-16T12:03:10.077Z,99.99
2018-12-16T12:04:10.054Z,99.99
2018-12-16T12:05:10.016Z,99.99
2018-12-16T12:06:10.037Z,99.99
2018-12-16T12:07:10.037Z,99.99
2018-12-16T12:08:11.174Z,99.99
2018-12-16T12:09:10.059Z,99.99
2018-12-16T12:10:10.127Z,99.99
2018-12-16T12:11:10.249Z,99.99
2018-12-16T12:12:10.350Z,99.99
2018-12-16T12:13:10.280Z,99.99
2018-12-16T12:14:10.478Z,99.99
2018-12-16T12:15:10.216Z,99.99
2018-12-16T12:16:10.144Z,99.99
2018-12-16T12:17:10.035Z,99.99
2018-12-16T12:18:09.998Z,99.99
2018-12-16T12:19:10.107Z,99.99
2018-12-16T12:20:10.466Z,99.99
2018-12-16T12:21:10.342Z,99.99
2018-12-16T12:22:10.153Z,99.99
2018-12-16T12:23:10.516Z,99.99
2018-12-16T12:24:10.225Z,99.99
2018-12-16T12:25:10.183Z,99.99
2018-12-16T12:26:10.430Z,99.99
2018-12-16T12:27:10.291Z,99.99
2018-12-16T12:28:10.500Z,99.99
2018-12-16T12:29:10.498Z,99.99
2018-12-16T12:30:10.462Z,99.99
2018-12-16T12:31:10.488Z,99.99
2018-12-16T12:32:10.395Z,99.99
2018-12-16T12:33:10.466Z,99.99
2018-12-16T12:34:10.975Z,99.99
2018-12-16T12:35:10.757Z,99.99
2018-12-16T12:36:10.598Z,99.99
2018-12-16T12:37:10.720Z,99.99
2018-12-16T12:38:10.474Z,99.99
2018-12-16T12:39:10.622Z,99.99
2018-12-16T12:40:10.489Z,99.99
2018-12-16T12:41:10.567Z,99.99
2018-12-16T12:42:10.467Z,99.99
2018-12-16T12:43:10.531Z,99.99
2018-12-16T12:44:10.612Z,99.99
2018-12-16T12:45:10.479Z,99.99
2018-12-16T12:46:10.619Z,99.99
2018-12-16T12:47:10.422Z,99.99
2018-12-16T12:54:46.870Z,99.99
2018-12-16T12:55:46.720Z,99.99
2018-12-16T12:56:46.654Z,99.99
2018-12-16T12:57:46.786Z,99.99
2018-12-16T12:58:48.289Z,99.99
2018-12-16T12:59:46.759Z,99.99
2018-12-16T13:00:46.960Z,99.99
2018-12-16T13:01:46.931Z,99.99
2018-12-16T13:02:46.692Z,99.99
2018-12-16T13:03:46.925Z,99.99
2018-12-16T13:04:46.816Z,99.99
2018-12-16T13:05:46.902Z,99.99
2018-12-16T13:06:46.841Z,99.99
2018-12-16T13:07:46.620Z,99.99
2018-12-16T13:08:46.510Z,99.99
2018-12-16T13:09:47.222Z,99.99
2018-12-16T13:10:47.056Z,99.99
2018-12-16T13:11:47.146Z,99.99
2018-12-16T13:12:46.740Z,99.99
2018-12-16T13:13:47.093Z,99.99
2018-12-16T13:14:46.867Z,99.99
2018-12-16T13:15:47.030Z,99.99
2018-12-16T13:16:46.993Z,99.99
2018-12-16T13:17:46.900Z,99.99
2018-12-16T13:18:46.990Z,99.99
2018-12-16T13:19:46.828Z,99.99
2018-12-16T13:20:46.952Z,99.99
2018-12-16T13:21:46.961Z,99.99
2018-12-16T13:22:46.958Z,99.99
2018-12-16T13:23:46.911Z,99.99
2018-12-16T13:24:47.114Z,99.99
2018-12-16T13:25:46.985Z,99.99
2018-12-16T13:26:46.757Z,99.99
2018-12-16T13:27:46.980Z,99.99
2018-12-16T13:28:47.000Z,99.99
2018-12-16T13:29:46.911Z,99.99
2018-12-16T13:30:47.165Z,99.99
2018-12-16T13:31:47.120Z,99.99
2018-12-16T13:32:47.121Z,99.99
2018-12-16T13:33:46.974Z,99.99
2018-12-16T13:34:47.088Z,99.99
2018-12-16T13:35:46.914Z,99.99
2018-12-16T13:36:47.878Z,99.99
2018-12-16T13:37:47.073Z,99.99
2018-12-16T13:38:46.979Z,99.99
2018-12-16T13:39:47.082Z,99.99
2018-12-16T13:40:47.050Z,99.99
2018-12-16T13:41:46.870Z,99.99
2018-12-16T13:42:47.049Z,99.99
2018-12-16T13:43:46.982Z,99.99
2018-12-16T13:44:46.944Z,99.99
2018-12-16T13:45:47.027Z,99.99
2018-12-16T13:46:47.078Z,99.99
2018-12-16T13:47:46.913Z,99.99
2018-12-16T13:48:47.091Z,99.99
2018-12-16T13:49:47.479Z,99.99
2018-12-16T13:50:46.860Z,99.99
2018-12-16T13:51:46.984Z,99.99
2018-12-16T13:52:46.993Z,99.99
2018-12-16T13:53:47.106Z,99.99